createdAt,value
2018-07-01T00:00:20.761Z,37.20
2018-07-01T00:02:49.210Z,37.30
2018-07-01T00:05:17.584Z,37.50
2018-07-01T00:07:46.067Z,37.30
2018-07-01T00:10:15.231Z,37.50
2018-07-01T00:12:43.658Z,37.70
2018-07-01T00:15:12.180Z,37.60
2018-07-01T00:20:09.507Z,38.10
2018-07-01T00:22:38.390Z,38.20
2018-07-01T00:25:06.977Z,38.10
2018-07-01T00:27:35.411Z,38.00
2018-07-01T00:30:04.631Z,38.30
2018-07-01T00:32:33.033Z,38.40
2018-07-01T00:35:01.433Z,38.70
2018-07-01T00:37:29.826Z,38.50
2018-07-01T00:39:58.221Z,38.70
2018-07-01T00:42:26.645Z,38.80
2018-07-01T00:44:55.057Z,39.00
2018-07-01T00:47:23.489Z,38.70
2018-07-01T00:49:51.889Z,38.70
2018-07-01T00:52:20.918Z,38.80
2018-07-01T00:54:49.293Z,38.90
2018-07-01T00:57:17.684Z,38.90
2018-07-01T00:59:46.118Z,39.00
2018-07-01T01:02:14.497Z,39.00
2018-07-01T01:04:42.897Z,39.20
2018-07-01T01:07:11.302Z,39.10
2018-07-01T01:09:39.689Z,39.20
2018-07-01T01:12:08.053Z,39.40
2018-07-01T01:14:36.442Z,39.40
2018-07-01T01:17:04.858Z,39.60
2018-07-01T01:19:33.255Z,39.50
2018-07-01T01:22:01.630Z,40.00
2018-07-01T01:24:30.089Z,40.00
2018-07-01T01:26:58.573Z,40.00
2018-07-01T01:29:26.950Z,40.00
2018-07-01T01:31:55.377Z,40.00
2018-07-01T01:34:23.748Z,39.90
2018-07-01T01:36:52.172Z,39.90
2018-07-01T01:39:24.146Z,39.90
2018-07-01T01:42:02.750Z,40.20
2018-07-01T01:44:37.682Z,40.30
2018-07-01T01:47:17.680Z,40.50
2018-07-01T01:49:57.657Z,40.40
2018-07-01T01:52:31.972Z,40.30
2018-07-01T01:55:06.561Z,40.70
2018-07-01T01:57:41.064Z,40.80
2018-07-01T02:00:15.534Z,40.80
2018-07-01T02:02:50.926Z,40.80
2018-07-01T02:05:26.106Z,40.90
2018-07-01T02:08:04.797Z,41.00
2018-07-01T02:10:33.239Z,40.80
2018-07-01T02:13:01.654Z,41.10
2018-07-01T02:15:34.650Z,40.90
2018-07-01T02:18:03.063Z,41.00
2018-07-01T02:20:34.102Z,40.90
2018-07-01T02:25:36.399Z,40.80
2018-07-01T02:28:04.858Z,40.80
2018-07-01T02:30:33.283Z,40.90
2018-07-01T02:33:01.880Z,41.00
2018-07-01T02:35:30.322Z,41.10
2018-07-01T02:37:58.671Z,41.10
2018-07-01T02:40:27.070Z,41.40
2018-07-01T02:42:55.518Z,41.50
2018-07-01T02:45:23.953Z,41.50
2018-07-01T02:47:52.343Z,41.30
2018-07-01T02:50:20.766Z,41.50
2018-07-01T02:52:49.154Z,41.40
2018-07-01T02:55:17.549Z,41.40
2018-07-01T02:57:45.922Z,41.40
2018-07-01T03:00:14.326Z,41.70
2018-07-01T03:02:42.822Z,41.70
2018-07-01T03:05:11.166Z,41.80
2018-07-01T03:07:39.530Z,41.80
2018-07-01T03:10:07.921Z,41.80
2018-07-01T03:12:36.340Z,41.50
2018-07-01T03:15:04.715Z,41.70
2018-07-01T03:17:33.147Z,42.00
2018-07-01T03:20:01.543Z,42.20
2018-07-01T03:22:29.997Z,42.20
2018-07-01T03:24:58.492Z,42.20
2018-07-01T03:27:26.921Z,42.20
2018-07-01T03:29:55.373Z,42.10
2018-07-01T03:32:23.981Z,42.20
2018-07-01T03:34:52.341Z,42.40
2018-07-01T03:37:20.786Z,42.80
2018-07-01T03:39:49.254Z,42.10
2018-07-01T03:42:17.644Z,42.40
2018-07-01T03:44:46.070Z,42.30
2018-07-01T03:47:14.469Z,42.30
2018-07-01T03:49:43.546Z,42.50
2018-07-01T03:52:11.923Z,42.50
2018-07-01T03:54:40.311Z,42.50
2018-07-01T03:57:08.685Z,42.80
2018-07-01T03:59:37.067Z,42.70
2018-07-01T04:02:05.545Z,42.60
2018-07-01T04:04:33.950Z,42.80
2018-07-01T04:07:02.365Z,42.70
2018-07-01T04:09:34.429Z,43.40
2018-07-01T04:12:03.297Z,42.80
2018-07-01T04:14:31.875Z,42.90
2018-07-01T04:19:36.149Z,43.20
2018-07-01T04:22:05.797Z,43.10
2018-07-01T04:24:34.556Z,43.40
2018-07-01T04:27:02.991Z,43.70
2018-07-01T04:29:31.450Z,43.80
2018-07-01T04:31:59.906Z,43.80
2018-07-01T04:34:28.389Z,43.90
2018-07-01T04:36:56.857Z,43.80
2018-07-01T04:39:25.609Z,43.90
2018-07-01T04:41:53.982Z,43.40
2018-07-01T04:44:23.317Z,43.80
2018-07-01T04:46:51.789Z,43.80
2018-07-01T04:49:20.212Z,43.80
2018-07-01T04:51:48.577Z,43.70
2018-07-01T04:54:17.030Z,43.90
2018-07-01T04:59:13.514Z,44.10
2018-07-01T05:01:41.915Z,44.10
2018-07-01T05:04:10.361Z,44.20
2018-07-01T05:06:38.736Z,44.10
2018-07-01T05:09:09.666Z,43.80
2018-07-01T05:11:38.224Z,44.00
2018-07-01T05:14:06.607Z,44.10
2018-07-01T05:16:35.072Z,44.60
2018-07-01T05:19:03.647Z,44.10
2018-07-01T05:21:32.046Z,44.20
2018-07-01T05:24:00.437Z,43.60
2018-07-01T05:26:28.841Z,43.70
2018-07-01T05:28:58.444Z,44.20
2018-07-01T05:31:27.208Z,43.50
2018-07-01T05:33:56.297Z,43.90
2018-07-01T05:36:24.665Z,43.60
2018-07-01T05:38:53.065Z,43.80
2018-07-01T05:41:21.475Z,43.50
2018-07-01T05:43:49.821Z,43.20
2018-07-01T05:46:18.286Z,43.30
2018-07-01T05:48:46.781Z,43.00
2018-07-01T05:51:15.197Z,42.70
2018-07-01T05:53:43.641Z,42.80
2018-07-01T05:56:12.061Z,43.00
2018-07-01T06:01:08.637Z,42.70
2018-07-01T06:03:37.097Z,42.00
2018-07-01T06:06:05.682Z,41.90
2018-07-01T06:08:34.393Z,41.90
2018-07-01T06:11:02.861Z,42.10
2018-07-01T06:13:31.277Z,42.00
2018-07-01T06:15:59.712Z,42.00
2018-07-01T06:18:28.140Z,41.50
2018-07-01T06:20:56.549Z,41.00
2018-07-01T06:23:24.962Z,41.30
2018-07-01T06:25:53.355Z,40.50
2018-07-01T06:28:21.738Z,42.70
2018-07-01T06:30:50.181Z,40.40
2018-07-01T06:33:18.581Z,40.40
2018-07-01T06:35:47.073Z,39.90
2018-07-01T06:38:15.458Z,40.20
2018-07-01T06:43:12.206Z,38.60
2018-07-01T06:45:40.605Z,39.20
2018-07-01T06:50:37.393Z,37.80
2018-07-01T06:53:06.055Z,37.50
2018-07-01T06:58:02.625Z,36.10
2018-07-01T07:00:30.994Z,37.20
2018-07-01T07:02:59.389Z,36.20
2018-07-01T07:05:27.834Z,35.80
2018-07-01T07:07:56.286Z,36.20
2018-07-01T07:10:24.767Z,36.30
2018-07-01T07:12:53.138Z,35.50
2018-07-01T07:15:21.657Z,35.80
2018-07-01T07:17:50.082Z,35.90
2018-07-01T07:20:18.479Z,36.10
2018-07-01T07:22:46.884Z,35.20
2018-07-01T07:25:15.286Z,35.30
2018-07-01T07:30:11.814Z,35.50
2018-07-01T07:32:40.306Z,34.30
2018-07-01T07:35:08.816Z,33.80
2018-07-01T07:37:37.505Z,33.70
2018-07-01T07:42:34.040Z,33.90
2018-07-01T07:45:02.599Z,33.30
2018-07-01T07:47:30.892Z,33.10
2018-07-01T07:49:59.266Z,33.70
2018-07-01T07:52:27.727Z,32.70
2018-07-01T07:54:56.129Z,31.80
2018-07-01T07:57:24.584Z,31.80
2018-07-01T07:59:52.965Z,31.30
2018-07-01T08:02:21.366Z,31.60
2018-07-01T08:04:49.760Z,33.30
2018-07-01T08:07:18.228Z,31.20
2018-07-01T08:09:46.622Z,32.20
2018-07-01T08:12:15.037Z,31.50
2018-07-01T08:14:43.449Z,31.30
2018-07-01T08:17:12.094Z,31.40
2018-07-01T08:19:40.839Z,32.10
2018-07-01T08:22:09.237Z,32.50
2018-07-01T08:24:37.641Z,30.70
2018-07-01T08:27:06.105Z,31.70
2018-07-01T08:29:34.483Z,31.40
2018-07-01T08:32:02.870Z,29.70
2018-07-01T08:34:31.273Z,29.80
2018-07-01T08:36:59.705Z,29.70
2018-07-01T08:39:28.142Z,30.50
2018-07-01T08:42:30.227Z,30.10
2018-07-01T08:44:59.809Z,29.90
2018-07-01T08:47:28.517Z,29.30
2018-07-01T08:49:56.995Z,29.50
2018-07-01T08:52:25.559Z,29.40
2018-07-01T08:54:53.963Z,28.80
2018-07-01T08:57:23.218Z,29.30
2018-07-01T08:59:51.852Z,30.00
2018-07-01T09:04:49.188Z,29.30
2018-07-01T09:07:18.214Z,29.40
2018-07-01T09:09:46.970Z,29.10
2018-07-01T09:12:15.409Z,28.60
2018-07-01T09:14:43.849Z,29.10
2018-07-01T09:17:12.312Z,29.30
2018-07-01T09:19:40.821Z,29.10
2018-07-01T09:22:09.309Z,29.20
2018-07-01T09:24:37.677Z,27.80
2018-07-01T09:27:06.178Z,27.90
2018-07-01T09:32:02.682Z,27.20
2018-07-01T09:34:31.117Z,27.90
2018-07-01T09:36:59.521Z,27.50
2018-07-01T09:39:27.968Z,27.50
2018-07-01T09:41:56.736Z,27.50
2018-07-01T09:44:25.236Z,27.90
2018-07-01T09:46:53.592Z,27.70
2018-07-01T09:49:22.013Z,27.60
2018-07-01T09:54:18.580Z,27.60
2018-07-01T09:56:47.057Z,26.50
2018-07-01T09:59:15.475Z,26.70
2018-07-01T10:01:43.865Z,26.40
2018-07-01T10:04:12.228Z,26.60
2018-07-01T10:06:40.617Z,26.80
2018-07-01T10:09:10.082Z,26.90
2018-07-01T10:11:38.613Z,26.80
2018-07-01T10:14:07.883Z,25.70
2018-07-01T10:16:36.370Z,26.30
2018-07-01T10:19:05.130Z,25.30
2018-07-01T10:21:33.713Z,26.40
2018-07-01T10:24:02.593Z,25.90
2018-07-01T10:26:30.970Z,26.10
2018-07-01T10:29:04.121Z,25.60
2018-07-01T10:31:32.933Z,26.00
2018-07-01T10:34:01.298Z,25.90
2018-07-01T10:36:29.808Z,26.00
2018-07-01T10:38:58.244Z,25.50
2018-07-01T10:41:26.715Z,25.50
2018-07-01T10:43:55.849Z,25.10
2018-07-01T10:46:24.214Z,25.10
2018-07-01T10:48:53.679Z,25.20
2018-07-01T10:51:22.198Z,24.60
2018-07-01T10:53:50.571Z,25.20
2018-07-01T10:56:18.951Z,24.70
2018-07-01T10:58:47.350Z,24.00
2018-07-01T11:01:15.832Z,24.20
2018-07-01T11:03:44.302Z,24.90
2018-07-01T11:06:12.753Z,23.90
2018-07-01T11:08:41.150Z,24.50
2018-07-01T11:11:09.548Z,24.90
2018-07-01T11:13:37.933Z,23.90
2018-07-01T11:16:06.461Z,24.20
2018-07-01T11:18:34.858Z,23.50
2018-07-01T11:21:03.298Z,23.20
2018-07-01T11:23:31.780Z,22.80
2018-07-01T11:26:00.909Z,24.10
2018-07-01T11:28:29.309Z,23.70
2018-07-01T11:30:57.859Z,22.90
2018-07-01T11:33:26.860Z,22.80
2018-07-01T11:35:55.267Z,21.70
2018-07-01T11:38:24.274Z,23.00
2018-07-01T11:40:52.847Z,23.70
2018-07-01T11:43:21.206Z,22.80
2018-07-01T11:45:49.675Z,22.70
2018-07-01T11:48:18.082Z,22.30
2018-07-01T11:50:46.470Z,22.50
2018-07-01T11:53:15.766Z,22.50
2018-07-01T11:58:12.339Z,22.90
2018-07-01T12:00:40.755Z,23.80
2018-07-01T12:03:09.154Z,22.70
2018-07-01T12:05:37.552Z,23.00
2018-07-01T12:08:06.141Z,21.60
2018-07-01T12:10:34.551Z,22.50
2018-07-01T12:14:50.809Z,22.20
2018-07-01T12:17:19.191Z,22.10
2018-07-01T12:19:47.698Z,21.80
2018-07-01T12:22:16.706Z,22.00
2018-07-01T12:24:45.127Z,22.20
2018-07-01T12:27:13.487Z,22.30
2018-07-01T12:29:41.975Z,22.20
2018-07-01T12:32:10.414Z,22.30
2018-07-01T12:34:38.821Z,22.00
2018-07-01T12:37:07.282Z,22.70
2018-07-01T12:39:35.675Z,21.50
2018-07-01T12:42:04.586Z,21.50
2018-07-01T12:44:33.005Z,21.90
2018-07-01T12:47:01.390Z,21.50
2018-07-01T12:49:29.782Z,21.70
2018-07-01T12:51:58.162Z,22.40
2018-07-01T12:54:26.579Z,21.60
2018-07-01T12:56:54.977Z,21.50
2018-07-01T12:59:23.586Z,22.60
2018-07-01T13:01:52.086Z,22.50
2018-07-01T13:04:20.443Z,22.00
2018-07-01T13:06:49.310Z,21.90
2018-07-01T13:09:17.698Z,22.20
2018-07-01T13:11:46.357Z,22.30
2018-07-01T13:14:14.726Z,22.50
2018-07-01T13:16:43.215Z,23.00
2018-07-01T13:19:11.596Z,22.90
2018-07-01T13:21:39.977Z,22.50
2018-07-01T13:24:08.366Z,22.60
2018-07-01T13:26:36.788Z,22.80
2018-07-01T13:29:05.336Z,22.50
2018-07-01T13:34:01.881Z,22.20
2018-07-01T13:36:30.269Z,21.60
2018-07-01T13:38:58.683Z,21.50
2018-07-01T13:41:27.057Z,21.70
2018-07-01T13:43:55.513Z,21.70
2018-07-01T13:46:23.957Z,21.80
2018-07-01T13:48:52.486Z,22.10
2018-07-01T13:51:20.913Z,21.80
2018-07-01T13:53:49.362Z,22.00
2018-07-01T13:56:17.758Z,21.70
2018-07-01T13:58:46.146Z,21.90
2018-07-01T14:01:14.614Z,21.90
2018-07-01T14:03:43.013Z,22.30
2018-07-01T14:06:11.398Z,23.00
2018-07-01T14:08:39.807Z,22.20
2018-07-01T14:11:08.378Z,24.60
2018-07-01T14:13:36.836Z,22.70
2018-07-01T14:16:05.556Z,22.60
2018-07-01T14:18:34.133Z,22.30
2018-07-01T14:21:02.531Z,22.40
2018-07-01T14:23:31.043Z,22.40
2018-07-01T14:25:59.465Z,22.70
2018-07-01T14:28:27.903Z,22.30
2018-07-01T14:30:56.577Z,23.10
2018-07-01T14:33:25.048Z,22.70
2018-07-01T14:35:53.491Z,23.00
2018-07-01T14:38:21.890Z,22.60
2018-07-01T14:40:51.247Z,23.30
2018-07-01T14:43:19.701Z,22.70
2018-07-01T14:45:48.129Z,23.10
2018-07-01T14:48:16.518Z,22.40
2018-07-01T14:50:45.058Z,22.70
2018-07-01T14:53:13.550Z,22.30
2018-07-01T14:55:42.013Z,22.40
2018-07-01T15:00:38.989Z,22.30
2018-07-01T15:03:07.514Z,23.30
2018-07-01T15:05:35.993Z,23.00
2018-07-01T15:08:04.469Z,23.10
2018-07-01T15:10:32.889Z,22.90
2018-07-01T15:13:01.325Z,22.30
2018-07-01T15:15:29.749Z,22.70
2018-07-01T15:17:58.162Z,23.10
2018-07-01T15:20:26.646Z,22.90
2018-07-01T15:22:55.079Z,22.80
2018-07-01T15:25:23.467Z,23.50
2018-07-01T15:27:51.960Z,23.30
2018-07-01T15:30:20.366Z,23.00
2018-07-01T15:32:48.815Z,22.90
2018-07-01T15:35:17.196Z,23.50
2018-07-01T15:37:45.640Z,23.30
2018-07-01T15:40:14.117Z,22.90
2018-07-01T15:42:42.540Z,23.40
2018-07-01T15:45:10.942Z,22.70
2018-07-01T15:47:39.345Z,23.50
2018-07-01T15:50:07.805Z,23.90
2018-07-01T15:52:36.255Z,23.90
2018-07-01T15:55:04.829Z,23.50
2018-07-01T15:57:33.296Z,23.40
2018-07-01T16:00:02.023Z,23.60
2018-07-01T16:02:30.960Z,23.40
2018-07-01T16:04:59.401Z,23.90
2018-07-01T16:07:27.845Z,23.90
2018-07-01T16:09:56.241Z,24.10
2018-07-01T16:12:24.698Z,23.70
2018-07-01T16:14:53.743Z,24.10
2018-07-01T16:17:22.181Z,23.60
2018-07-01T16:19:50.617Z,24.10
2018-07-01T16:22:19.049Z,24.10
2018-07-01T16:24:52.844Z,24.30
2018-07-01T16:27:26.653Z,24.40
2018-07-01T16:29:55.182Z,24.10
2018-07-01T16:32:23.562Z,24.50
2018-07-01T16:34:51.984Z,24.60
2018-07-01T16:37:20.401Z,24.60
2018-07-01T16:39:48.827Z,24.90
2018-07-01T16:42:17.317Z,24.50
2018-07-01T16:44:45.713Z,24.50
2018-07-01T16:47:14.542Z,24.60
2018-07-01T16:49:43.145Z,25.10
2018-07-01T16:52:11.611Z,24.90
2018-07-01T16:54:40.084Z,25.10
2018-07-01T16:57:08.498Z,25.50
2018-07-01T16:59:36.945Z,25.40
2018-07-01T17:02:06.193Z,25.70
2018-07-01T17:04:34.612Z,25.50
2018-07-01T17:07:02.998Z,25.20
2018-07-01T17:09:31.393Z,25.20
2018-07-01T17:11:59.833Z,25.70
2018-07-01T17:14:28.270Z,25.40
2018-07-01T17:16:57.065Z,25.70
2018-07-01T17:19:25.539Z,26.00
2018-07-01T17:21:54.201Z,25.90
2018-07-01T17:24:22.624Z,26.00
2018-07-01T17:26:50.998Z,26.00
2018-07-01T17:29:19.349Z,26.20
2018-07-01T17:31:53.198Z,26.80
2018-07-01T17:34:21.736Z,26.30
2018-07-01T17:36:50.111Z,26.00
2018-07-01T17:39:18.494Z,26.50
2018-07-01T17:41:46.889Z,26.40
2018-07-01T17:44:15.255Z,26.50
2018-07-01T17:46:43.686Z,27.00
2018-07-01T17:49:12.085Z,26.70
2018-07-01T17:51:40.473Z,26.60
2018-07-01T17:54:08.989Z,26.90
2018-07-01T17:56:37.422Z,26.90
2018-07-01T17:59:05.875Z,26.90
2018-07-01T18:01:34.327Z,26.90
2018-07-01T18:04:02.733Z,26.90
2018-07-01T18:06:31.194Z,27.60
2018-07-01T18:08:59.612Z,27.80
2018-07-01T18:11:27.989Z,27.40
2018-07-01T18:13:57.114Z,27.60
2018-07-01T18:16:25.556Z,27.60
2018-07-01T18:18:54.110Z,27.20
2018-07-01T18:21:22.643Z,27.40
2018-07-01T18:24:19.494Z,28.00
2018-07-01T18:26:19.479Z,27.40
2018-07-01T18:28:59.157Z,27.70
2018-07-01T18:31:16.314Z,27.50
2018-07-01T18:33:44.872Z,27.40
2018-07-01T18:36:13.289Z,28.10
2018-07-01T18:38:41.733Z,27.60
2018-07-01T18:41:10.205Z,28.50
2018-07-01T18:43:38.662Z,28.60
2018-07-01T18:46:07.118Z,28.30
2018-07-01T18:48:35.539Z,28.30
2018-07-01T18:51:03.954Z,28.40
2018-07-01T18:53:32.400Z,28.60
2018-07-01T18:56:00.991Z,28.70
2018-07-01T18:58:29.373Z,28.70
2018-07-01T19:00:57.774Z,28.40
2018-07-01T19:03:26.356Z,28.60
2018-07-01T19:05:54.859Z,28.50
2018-07-01T19:08:23.735Z,28.80
2018-07-01T19:10:54.048Z,28.80
2018-07-01T19:13:22.455Z,29.10
2018-07-01T19:15:50.909Z,29.10
2018-07-01T19:18:19.549Z,29.20
2018-07-01T19:20:48.006Z,29.20
2018-07-01T19:23:16.406Z,29.80
2018-07-01T19:25:44.858Z,29.50
2018-07-01T19:28:13.301Z,29.50
2018-07-01T19:30:41.733Z,29.70
2018-07-01T19:33:10.165Z,41.40
2018-07-01T19:35:38.574Z,46.60
2018-07-01T19:38:07.056Z,30.70
2018-07-01T19:40:35.505Z,30.60
2018-07-01T19:43:04.406Z,30.70
2018-07-01T19:45:32.638Z,30.70
2018-07-01T19:48:01.045Z,30.40
2018-07-01T19:50:29.492Z,31.10
2018-07-01T19:52:57.944Z,32.10
2018-07-01T19:55:26.390Z,30.60
2018-07-01T19:57:56.225Z,31.00
2018-07-01T20:00:24.718Z,30.90
2018-07-01T20:02:53.097Z,31.50
2018-07-01T20:05:21.551Z,31.60
2018-07-01T20:07:49.965Z,30.90
2018-07-01T20:10:18.340Z,31.30
2018-07-01T20:12:46.705Z,31.50
2018-07-01T20:15:15.157Z,31.40
2018-07-01T20:17:43.561Z,31.50
2018-07-01T20:20:12.107Z,31.20
2018-07-01T20:22:40.545Z,31.80
2018-07-01T20:25:09.353Z,31.30
2018-07-01T20:27:37.780Z,31.70
2018-07-01T20:30:06.383Z,31.40
2018-07-01T20:32:34.864Z,31.60
2018-07-01T20:35:03.286Z,31.70
2018-07-01T20:37:31.746Z,31.60
2018-07-01T20:40:01.416Z,31.50
2018-07-01T20:42:29.850Z,31.70
2018-07-01T20:44:58.255Z,31.30
2018-07-01T20:47:26.613Z,31.70
2018-07-01T20:49:55.049Z,31.80
2018-07-01T20:52:23.438Z,31.50
2018-07-01T20:54:51.853Z,31.70
2018-07-01T20:57:20.261Z,32.00
2018-07-01T20:59:48.652Z,31.90
2018-07-01T21:02:17.053Z,32.10
2018-07-01T21:04:45.414Z,31.70
2018-07-01T21:07:13.825Z,32.30
2018-07-01T21:09:42.245Z,32.20
2018-07-01T21:12:11.054Z,32.50
2018-07-01T21:14:39.466Z,32.40
2018-07-01T21:17:07.865Z,32.30
2018-07-01T21:19:36.257Z,32.60
2018-07-01T21:22:04.709Z,32.40
2018-07-01T21:24:33.065Z,32.30
2018-07-01T21:29:29.781Z,32.40
2018-07-01T21:31:58.195Z,32.40
2018-07-01T21:34:26.573Z,32.50
2018-07-01T21:39:23.054Z,32.80
2018-07-01T21:41:52.018Z,32.50
2018-07-01T21:46:48.573Z,32.90
2018-07-01T21:49:17.054Z,33.10
2018-07-01T21:51:45.442Z,33.60
2018-07-01T21:54:13.894Z,33.10
2018-07-01T21:56:42.341Z,32.90
2018-07-01T21:59:10.777Z,33.10
2018-07-01T22:01:39.254Z,33.20
2018-07-01T22:04:07.700Z,33.40
2018-07-01T22:06:41.260Z,33.40
2018-07-01T22:09:09.703Z,34.00
2018-07-01T22:11:50.600Z,33.30
2018-07-01T22:14:31.786Z,33.70
2018-07-01T22:17:00.681Z,33.70
2018-07-01T22:19:29.308Z,34.10
2018-07-01T22:21:58.297Z,34.00
2018-07-01T22:24:28.170Z,34.10
2018-07-01T22:26:56.661Z,34.10
2018-07-01T22:29:25.138Z,34.70
2018-07-01T22:31:53.549Z,34.60
2018-07-01T22:34:22.379Z,34.30
2018-07-01T22:36:51.029Z,34.40
2018-07-01T22:39:22.549Z,34.70
2018-07-01T22:44:19.836Z,34.70
2018-07-01T22:46:48.815Z,35.00
2018-07-01T22:49:17.304Z,34.90
2018-07-01T22:51:45.777Z,34.90
2018-07-01T22:54:14.247Z,34.80
2018-07-01T22:56:42.646Z,34.70
2018-07-01T22:59:11.049Z,35.00
2018-07-01T23:02:47.228Z,35.00
2018-07-01T23:05:15.677Z,35.10
2018-07-01T23:07:44.076Z,35.60
2018-07-01T23:10:12.473Z,35.20
2018-07-01T23:12:41.458Z,35.40
2018-07-01T23:15:09.856Z,35.60
2018-07-01T23:17:38.246Z,36.20
2018-07-01T23:20:06.910Z,35.60
2018-07-01T23:22:35.353Z,36.20
2018-07-01T23:25:03.781Z,35.90
2018-07-01T23:27:32.166Z,35.90
2018-07-01T23:30:00.550Z,36.00
2018-07-01T23:32:29.447Z,36.00
2018-07-01T23:34:57.855Z,36.30
2018-07-01T23:37:26.553Z,36.60
2018-07-01T23:39:54.975Z,36.50
2018-07-01T23:42:23.397Z,36.70
2018-07-01T23:44:51.994Z,36.50
2018-07-01T23:47:20.981Z,36.70
2018-07-01T23:49:49.391Z,36.50
2018-07-01T23:52:18.420Z,36.80
2018-07-01T23:54:46.949Z,36.80
2018-07-01T23:57:15.389Z,36.80
2018-07-01T23:59:43.830Z,36.80
